Time;durP1;ratioP1;P1;durP2;ratioP2;P2;SDS_P1;SDS_P2;PMS_P1;PMS_P2;Temp;Humidity;BMP_temperature;BMP_pressure;BME280_temperature;BME280_humidity;BME280_pressure;Samples;Min_cycle;Max_cycle;Signal;HPM_P1;HPM_P2
2024/01/08 00:02:06;;;;;;;6.97;4.57;;;-3276.60;88.30;;;;;;5084761;27;20108;-79
2024/01/08 00:04:32;;;;;;;6.35;5.10;;;-3276.60;88.30;;;;;;5118247;27;20540;-80
2024/01/08 00:06:58;;;;;;;7.05;4.47;;;-3276.60;88.30;;;;;;5101105;27;20043;-80
2024/01/08 00:09:24;;;;;;;11.00;5.22;;;-3276.60;88.30;;;;;;5118204;27;20092;-80
2024/01/08 00:11:49;;;;;;;8.23;5.10;;;-3276.60;88.30;;;;;;5101143;27;20043;-80
2024/01/08 00:14:15;;;;;;;8.88;5.10;;;-3276.60;88.40;;;;;;5101110;27;20047;-80
2024/01/08 00:16:41;;;;;;;7.32;4.85;;;-3276.60;88.30;;;;;;5101058;27;20035;-80
2024/01/08 00:19:06;;;;;;;7.53;5.18;;;-3276.70;88.40;;;;;;5118266;27;20038;-80
2024/01/08 00:21:32;;;;;;;7.13;5.18;;;-3276.70;88.40;;;;;;5100506;27;20118;-80
2024/01/08 00:23:58;;;;;;;7.88;5.47;;;-3276.60;88.30;;;;;;5118062;27;20138;-80
2024/01/08 00:26:24;;;;;;;7.05;5.03;;;-3276.70;88.40;;;;;;5117842;27;20410;-79
2024/01/08 00:28:50;;;;;;;8.77;5.20;;;-3276.70;88.30;;;;;;5101009;27;20054;-80
2024/01/08 00:31:16;;;;;;;7.63;5.40;;;-3276.70;88.50;;;;;;5134752;27;20039;-80
2024/01/08 00:33:41;;;;;;;8.60;5.30;;;-3276.70;88.40;;;;;;5117577;27;20091;-80
2024/01/08 00:36:07;;;;;;;8.05;5.50;;;-3276.70;88.50;;;;;;5134559;27;20061;-80
2024/01/08 00:38:33;;;;;;;6.20;4.97;;;-3276.60;88.30;;;;;;5100539;27;20047;-80
2024/01/08 00:40:58;;;;;;;9.30;5.82;;;-3276.60;88.40;;;;;;5117469;27;20464;-79
2024/01/08 00:43:24;;;;;;;8.07;5.10;;;-3276.60;88.50;;;;;;5100760;27;20042;-80
2024/01/08 00:45:50;;;;;;;7.78;5.05;;;-3276.60;88.30;;;;;;5100360;27;20035;-80
2024/01/08 00:48:15;;;;;;;7.05;5.25;;;-3276.60;88.30;;;;;;5117327;27;20122;-80
2024/01/08 00:50:41;;;;;;;7.85;5.40;;;-3276.60;88.30;;;;;;5100643;27;20088;-80
2024/01/08 00:53:09;;;;;;;7.60;5.22;;;-3276.70;88.40;;;;;;5100337;27;20127;-80
2024/01/08 00:55:34;;;;;;;8.98;5.10;;;-3276.70;88.20;;;;;;5117331;27;20035;-80
2024/01/08 00:58:00;;;;;;;7.70;4.95;;;-3276.70;88.10;;;;;;5099976;27;20590;-80
2024/01/08 01:00:26;;;;;;;8.68;4.65;;;-3276.70;88.00;;;;;;5100081;27;20041;-80
2024/01/08 01:02:52;;;;;;;8.02;5.22;;;-3276.70;87.90;;;;;;5117609;27;20027;-80
2024/01/08 01:05:17;;;;;;;7.03;4.80;;;-3276.70;88.00;;;;;;5116965;27;20507;-80
2024/01/08 01:07:44;;;;;;;7.45;5.47;;;-3276.70;88.00;;;;;;5134357;27;20035;-80
2024/01/08 01:10:10;;;;;;;9.27;5.13;;;-3276.70;88.00;;;;;;5116836;27;20122;-80
2024/01/08 01:12:35;;;;;;;7.95;4.95;;;0.00;88.20;;;;;;5100004;27;20110;-80
2024/01/08 01:15:01;;;;;;;7.95;5.45;;;0.00;88.00;;;;;;5117049;27;20043;-80
2024/01/08 01:17:27;;;;;;;7.40;4.75;;;0.00;87.70;;;;;;5133817;27;20062;-80
2024/01/08 01:19:53;;;;;;;14.85;5.18;;;0.00;87.80;;;;;;5100230;27;20041;-80
2024/01/08 01:22:18;;;;;;;8.05;4.47;;;-3276.70;87.80;;;;;;5099973;27;20035;-80
2024/01/08 01:24:44;;;;;;;8.43;4.82;;;0.00;87.80;;;;;;5100118;27;20139;-80
2024/01/08 01:27:10;;;;;;;8.35;5.35;;;0.00;87.60;;;;;;5083393;27;20046;-80
2024/01/08 01:29:36;;;;;;;6.93;4.75;;;0.00;87.60;;;;;;5116816;27;20100;-79
2024/01/08 01:32:01;;;;;;;7.53;5.10;;;0.00;87.20;;;;;;5134706;27;20443;-79
2024/01/08 01:34:27;;;;;;;7.75;5.05;;;-3276.70;87.30;;;;;;5117126;27;20043;-80
2024/01/08 01:36:53;;;;;;;7.30;5.15;;;-3276.70;87.30;;;;;;5101690;27;20043;-80
2024/01/08 01:39:19;;;;;;;10.90;5.72;;;-3276.70;87.30;;;;;;5134745;27;20518;-80
2024/01/08 01:41:44;;;;;;;8.45;4.72;;;-3276.60;86.60;;;;;;5116426;27;20126;-80
2024/01/08 01:44:10;;;;;;;7.50;4.85;;;-3276.50;86.40;;;;;;5099188;27;20046;-80
2024/01/08 01:46:50;;;;;;;7.35;4.85;;;-3276.50;86.50;;;;;;5099369;27;20394;-80
2024/01/08 01:49:19;;;;;;;10.98;5.07;;;-3276.40;86.60;;;;;;5116259;27;20050;-80
2024/01/08 01:51:46;;;;;;;8.65;4.55;;;-3276.40;86.60;;;;;;5116168;27;20036;-80
2024/01/08 01:54:17;;;;;;;7.68;4.68;;;-3276.30;86.70;;;;;;5116500;27;20399;-80
2024/01/08 01:57:09;;;;;;;6.05;4.82;;;-3276.30;87.00;;;;;;5099052;27;20053;-80
2024/01/08 01:59:35;;;;;;;8.30;5.18;;;-3276.30;87.20;;;;;;5095161;27;20043;-80
2024/01/08 02:02:01;;;;;;;7.88;4.65;;;-3276.30;87.30;;;;;;5115910;27;20035;-80
2024/01/08 02:04:29;;;;;;;9.25;4.72;;;-3276.30;87.30;;;;;;5099328;27;20042;-80
2024/01/08 02:06:56;;;;;;;7.53;4.57;;;-3276.20;87.20;;;;;;5115862;27;20035;-80
2024/01/08 02:09:22;;;;;;;7.43;4.55;;;-3276.20;87.30;;;;;;5133116;27;20070;-80
2024/01/08 02:11:48;;;;;;;10.55;5.63;;;-3276.10;87.40;;;;;;5115881;27;20046;-80
2024/01/08 02:14:15;;;;;;;7.90;5.03;;;-3276.10;87.20;;;;;;5115967;27;20034;-80
2024/01/08 02:16:41;;;;;;;7.15;4.32;;;-3276.00;87.10;;;;;;5115916;27;20372;-80
2024/01/08 02:19:09;;;;;;;8.65;5.03;;;-3276.00;87.40;;;;;;5099207;28;20075;-80
2024/01/08 02:21:34;;;;;;;9.52;5.30;;;-3275.90;86.80;;;;;;5133226;27;20117;-80
2024/01/08 02:24:00;;;;;;;6.53;4.95;;;-3275.90;86.90;;;;;;5132776;27;20070;-80
2024/01/08 02:26:26;;;;;;;8.52;4.85;;;-3275.90;87.20;;;;;;5116026;28;20039;-80
2024/01/08 02:28:52;;;;;;;7.63;5.03;;;-3275.90;87.10;;;;;;5115627;28;20039;-80
2024/01/08 02:31:20;;;;;;;8.93;5.38;;;-3275.90;87.40;;;;;;5098586;28;20039;-80
2024/01/08 02:33:46;;;;;;;7.72;5.47;;;-3275.80;87.00;;;;;;5115498;28;20075;-80
2024/01/08 02:36:11;;;;;;;8.43;4.35;;;-3275.90;87.20;;;;;;5115499;28;20089;-81
2024/01/08 02:38:37;;;;;;;9.98;5.15;;;-3275.90;87.30;;;;;;5098502;28;20092;-81
2024/01/08 02:41:03;;;;;;;9.45;5.93;;;-3275.90;87.40;;;;;;5115817;28;20048;-79
2024/01/08 02:43:28;;;;;;;7.03;5.20;;;-3276.00;87.50;;;;;;5098553;28;20547;-79
2024/01/08 02:45:54;;;;;;;8.85;5.60;;;-3275.90;87.30;;;;;;5117701;27;20039;-80
2024/01/08 02:48:20;;;;;;;9.15;6.40;;;-3276.00;87.40;;;;;;5120006;27;20088;-79
2024/01/08 02:50:45;;;;;;;8.85;6.05;;;-3276.00;87.50;;;;;;5102953;27;20035;-80
2024/01/08 02:53:11;;;;;;;8.32;5.47;;;-3276.00;87.40;;;;;;5102645;27;20038;-80
2024/01/08 02:55:37;;;;;;;9.18;5.60;;;-3276.00;87.20;;;;;;5136560;27;20043;-79
2024/01/08 02:58:04;;;;;;;8.60;4.55;;;-3276.00;87.30;;;;;;5102516;27;20043;-80
2024/01/08 03:00:29;;;;;;;8.70;5.70;;;-3276.00;87.30;;;;;;5136334;27;20194;-79
2024/01/08 03:02:55;;;;;;;7.93;5.60;;;-3276.00;87.30;;;;;;5102502;27;20118;-80
2024/01/08 03:05:21;;;;;;;8.00;5.35;;;-3276.10;87.40;;;;;;5136650;27;20118;-80
2024/01/08 03:07:46;;;;;;;7.63;5.47;;;-3276.10;87.30;;;;;;5119310;27;20554;-79
2024/01/08 03:10:12;;;;;;;10.65;5.72;;;-3276.10;87.40;;;;;;5119592;27;20390;-80
2024/01/08 03:12:38;;;;;;;9.95;5.28;;;-3276.20;87.30;;;;;;5102597;27;20368;-80
2024/01/08 03:15:04;;;;;;;6.65;5.28;;;-3276.10;87.20;;;;;;5136503;27;20031;-80
2024/01/08 03:17:30;;;;;;;7.85;6.00;;;-3276.20;87.10;;;;;;5085251;27;20035;-80
2024/01/08 03:19:56;;;;;;;9.15;5.28;;;-3276.10;87.10;;;;;;5102199;27;20070;-79
2024/01/08 03:22:21;;;;;;;8.82;5.30;;;-3276.20;87.30;;;;;;5102059;27;20038;-80
2024/01/08 03:24:48;;;;;;;8.65;5.90;;;-3276.20;87.40;;;;;;5136140;27;20042;-80
2024/01/08 03:27:14;;;;;;;8.73;5.47;;;-3276.20;87.50;;;;;;5136073;27;20463;-79
2024/01/08 03:29:40;;;;;;;9.55;5.55;;;-3276.30;87.40;;;;;;5118851;27;20130;-80
2024/01/08 03:32:06;;;;;;;7.22;5.22;;;-3276.20;87.30;;;;;;5118879;27;20126;-80
2024/01/08 03:34:32;;;;;;;8.18;5.88;;;-3276.20;87.30;;;;;;5101640;27;20043;-80
2024/01/08 03:36:58;;;;;;;8.68;5.85;;;-3276.30;87.30;;;;;;5101768;27;20043;-79
2024/01/08 03:39:25;;;;;;;8.82;5.50;;;-3276.30;87.20;;;;;;5118731;27;20054;-80
2024/01/08 03:41:51;;;;;;;8.10;5.72;;;-3276.30;87.10;;;;;;5118579;27;20039;-80
2024/01/08 03:44:16;;;;;;;8.38;6.30;;;-3276.30;87.30;;;;;;5118701;27;20035;-79
2024/01/08 03:46:42;;;;;;;10.52;6.47;;;-3276.30;87.40;;;;;;5101659;27;20035;-80
2024/01/08 03:49:08;;;;;;;11.30;5.63;;;-3276.40;87.30;;;;;;5101510;27;20122;-80
2024/01/08 03:51:34;;;;;;;10.27;6.85;;;-3276.40;87.20;;;;;;5118466;27;20046;-80
2024/01/08 03:54:00;;;;;;;7.35;5.95;;;-3276.40;87.20;;;;;;5118290;27;20039;-80
2024/01/08 03:56:26;;;;;;;9.27;5.53;;;-3276.40;87.40;;;;;;5100841;28;20043;-79
2024/01/08 03:58:52;;;;;;;8.07;5.25;;;-3276.40;87.30;;;;;;5101185;27;20570;-80
2024/01/08 04:01:17;;;;;;;9.07;5.38;;;-3276.40;87.10;;;;;;5118659;27;20027;-80
2024/01/08 04:03:43;;;;;;;7.10;5.32;;;-3276.40;87.10;;;;;;5101348;27;20514;-80
2024/01/08 04:06:11;;;;;;;7.53;5.90;;;-3276.40;86.80;;;;;;5118311;27;20122;-79
2024/01/08 04:08:37;;;;;;;10.02;5.80;;;-3276.50;86.90;;;;;;5101143;27;20035;-80
2024/01/08 04:11:03;;;;;;;8.88;5.68;;;-3276.50;87.00;;;;;;5101078;27;20092;-80
2024/01/08 04:13:30;;;;;;;9.57;6.20;;;-3276.50;87.10;;;;;;5135392;27;20084;-80
2024/01/08 04:15:56;;;;;;;8.95;5.93;;;-3276.50;87.00;;;;;;5135404;27;20039;-80
2024/01/08 04:18:21;;;;;;;8.38;5.93;;;-3276.50;87.10;;;;;;5135140;27;20458;-79
2024/01/08 04:20:47;;;;;;;9.10;6.38;;;-3276.50;87.00;;;;;;5101206;27;20035;-79
2024/01/08 04:23:13;;;;;;;8.90;6.03;;;-3276.50;86.90;;;;;;5117836;27;20483;-80
2024/01/08 04:25:39;;;;;;;9.57;5.93;;;-3276.50;86.90;;;;;;5100827;27;20039;-80
2024/01/08 04:28:05;;;;;;;8.30;6.00;;;-3276.50;87.10;;;;;;5101052;27;20046;-80
2024/01/08 04:30:30;;;;;;;8.80;5.90;;;-3276.60;87.30;;;;;;5100804;27;20042;-80
2024/01/08 04:32:57;;;;;;;9.05;6.13;;;-3276.60;87.40;;;;;;5100671;27;20039;-80
2024/01/08 04:35:22;;;;;;;8.40;5.70;;;-3276.60;87.40;;;;;;5084184;27;20043;-80
2024/01/08 04:37:48;;;;;;;10.02;6.22;;;-3276.60;87.40;;;;;;5134457;27;20054;-80
2024/01/08 04:40:14;;;;;;;10.18;6.35;;;-3276.70;87.60;;;;;;5100547;27;20043;-80
2024/01/08 04:42:40;;;;;;;8.65;6.35;;;-3276.70;87.70;;;;;;5134432;27;20047;-80
2024/01/08 04:45:06;;;;;;;11.15;6.05;;;-3276.70;87.70;;;;;;5100665;27;20039;-79
2024/01/08 04:47:32;;;;;;;11.13;7.28;;;-3276.70;87.50;;;;;;5117838;27;20440;-80
2024/01/08 04:50:01;;;;;;;9.35;5.60;;;-3276.60;87.50;;;;;;5100378;27;20038;-80
2024/01/08 04:52:27;;;;;;;8.52;5.88;;;-3276.60;87.10;;;;;;5117309;27;20104;-80
2024/01/08 04:54:52;;;;;;;10.25;6.00;;;-3276.70;87.50;;;;;;5100526;27;20078;-79
2024/01/08 04:57:19;;;;;;;9.30;6.03;;;-3276.70;87.50;;;;;;5117035;27;20505;-80
2024/01/08 04:59:45;;;;;;;10.30;6.88;;;-3276.70;87.40;;;;;;5117382;27;20138;-80
2024/01/08 05:02:10;;;;;;;10.90;6.25;;;-3276.70;87.60;;;;;;5134253;27;20071;-79
2024/01/08 05:04:36;;;;;;;9.52;6.20;;;-3276.60;87.50;;;;;;5117018;27;20043;-80
2024/01/08 05:07:03;;;;;;;9.13;6.40;;;-3276.60;87.50;;;;;;5134195;27;20085;-80
2024/01/08 05:09:29;;;;;;;11.25;6.03;;;-3276.60;87.60;;;;;;5132914;27;20043;-79
2024/01/08 05:11:56;;;;;;;8.90;5.72;;;-3276.70;87.80;;;;;;5116839;27;20510;-80
2024/01/08 05:14:21;;;;;;;9.10;6.47;;;-3276.70;87.80;;;;;;5133884;27;20483;-79
2024/01/08 05:16:47;;;;;;;6.90;4.95;;;-3276.60;87.80;;;;;;5134067;27;20043;-79
2024/01/08 05:19:13;;;;;;;6.63;4.75;;;-3276.60;87.80;;;;;;5116715;27;20437;-79
2024/01/08 05:21:39;;;;;;;7.00;5.07;;;-3276.50;87.50;;;;;;5099642;27;20123;-80
2024/01/08 05:24:05;;;;;;;9.32;4.72;;;-3276.60;87.70;;;;;;5099939;27;20042;-80
2024/01/08 05:26:31;;;;;;;7.35;4.70;;;-3276.70;87.90;;;;;;5099547;27;20043;-79
2024/01/08 05:28:57;;;;;;;11.95;5.72;;;-3276.70;87.80;;;;;;5116478;27;20126;-79
2024/01/08 05:31:23;;;;;;;7.13;4.97;;;-3276.70;87.70;;;;;;5082729;27;20050;-80
2024/01/08 05:33:49;;;;;;;10.68;4.93;;;-3276.60;87.60;;;;;;5116745;27;20274;-80
2024/01/08 05:36:15;;;;;;;9.88;4.65;;;-3276.70;87.80;;;;;;5116423;27;20099;-79
2024/01/08 05:38:41;;;;;;;6.40;4.10;;;-3276.70;87.50;;;;;;5116283;27;20050;-79
2024/01/08 05:41:07;;;;;;;12.30;5.07;;;-3276.60;87.50;;;;;;5116612;27;20035;-79
2024/01/08 05:43:38;;;;;;;6.32;4.00;;;-3276.60;87.60;;;;;;5133382;27;20395;-80
2024/01/08 05:46:08;;;;;;;8.88;4.53;;;-3276.70;87.30;;;;;;5117262;27;20045;-80
2024/01/08 05:48:39;;;;;;;5.38;3.80;;;-3276.60;86.20;;;;;;5116505;27;20027;-80
2024/01/08 05:51:06;;;;;;;7.28;3.83;;;-3276.60;86.70;;;;;;5100031;27;20043;-79
2024/01/08 05:53:32;;;;;;;6.65;4.38;;;-3276.50;86.20;;;;;;5116338;27;20039;-79
2024/01/08 05:55:58;;;;;;;6.90;3.72;;;-3276.60;86.50;;;;;;5133127;27;20038;-79
2024/01/08 05:58:24;;;;;;;6.88;3.85;;;-3276.60;86.50;;;;;;5116007;27;20081;-79
2024/01/08 06:00:50;;;;;;;7.65;3.80;;;-3276.60;86.20;;;;;;5115960;27;20039;-79
2024/01/08 06:03:15;;;;;;;6.28;4.13;;;-3276.50;86.00;;;;;;5115968;27;20031;-79
2024/01/08 06:05:41;;;;;;;8.43;4.20;;;-3276.50;85.70;;;;;;5098993;27;20445;-80
2024/01/08 06:08:08;;;;;;;7.65;3.70;;;-3276.40;84.80;;;;;;5082288;27;20130;-79
2024/01/08 06:10:34;;;;;;;6.50;3.88;;;-3276.40;85.20;;;;;;5115805;27;20047;-79
2024/01/08 06:13:00;;;;;;;6.63;3.70;;;-3276.30;85.20;;;;;;5098882;27;20057;-80
2024/01/08 06:15:26;;;;;;;7.85;4.10;;;-3276.30;86.10;;;;;;5115799;27;20042;-79
2024/01/08 06:17:52;;;;;;;5.95;4.10;;;-3276.30;85.60;;;;;;5098765;27;20043;-79
2024/01/08 06:20:17;;;;;;;4.95;3.33;;;-3276.20;85.00;;;;;;5115645;28;20074;-81
2024/01/08 06:22:43;;;;;;;7.97;4.57;;;-3276.10;84.90;;;;;;5082006;28;20495;-80
2024/01/08 06:25:09;;;;;;;7.05;3.78;;;-3276.10;84.90;;;;;;5115617;27;20043;-79
2024/01/08 06:27:34;;;;;;;5.38;3.45;;;-3276.00;84.50;;;;;;5098843;28;20074;-80
2024/01/08 06:30:00;;;;;;;10.52;4.20;;;-3276.00;84.60;;;;;;5132643;27;20039;-79
2024/01/08 06:32:26;;;;;;;5.75;4.15;;;-3275.90;85.20;;;;;;5098658;28;20077;-79
2024/01/08 06:34:52;;;;;;;8.32;4.53;;;-3275.90;85.10;;;;;;5132804;28;20035;-80
2024/01/08 06:37:17;;;;;;;7.85;4.03;;;-3275.90;85.70;;;;;;5098623;28;20089;-79
2024/01/08 06:39:43;;;;;;;6.35;4.18;;;-3275.90;86.10;;;;;;5115459;28;20083;-78
2024/01/08 06:42:09;;;;;;;5.75;3.63;;;-3275.90;86.00;;;;;;5098683;28;20039;-78
2024/01/08 06:44:35;;;;;;;9.98;4.45;;;-3275.90;85.80;;;;;;5132555;28;20035;-78
2024/01/08 06:47:00;;;;;;;6.43;4.22;;;-3275.80;85.50;;;;;;5098531;28;20043;-79
2024/01/08 06:49:26;;;;;;;7.95;3.75;;;-3275.70;85.50;;;;;;5081653;28;20043;-79
2024/01/08 06:51:52;;;;;;;7.93;4.78;;;-3275.70;85.80;;;;;;5098865;28;20512;-78
2024/01/08 06:54:18;;;;;;;6.93;4.28;;;-3275.70;86.00;;;;;;5098392;28;20100;-79
2024/01/08 06:56:44;;;;;;;7.70;4.18;;;-3275.70;86.10;;;;;;5098415;28;20104;-78
2024/01/08 06:59:09;;;;;;;6.88;4.50;;;-3275.70;86.40;;;;;;5098522;28;20414;-79
2024/01/08 07:01:35;;;;;;;5.93;4.07;;;-3275.70;86.60;;;;;;5132704;28;20096;-79
2024/01/08 07:04:01;;;;;;;5.40;3.80;;;-3275.70;86.50;;;;;;5098259;28;20544;-78
2024/01/08 07:06:27;;;;;;;6.32;4.32;;;-3275.70;86.40;;;;;;5115241;28;20132;-79
2024/01/08 07:08:53;;;;;;;6.80;4.00;;;-3275.70;86.50;;;;;;5114436;28;20049;-79
2024/01/08 07:11:25;;;;;;;6.15;4.10;;;-3275.60;86.50;;;;;;5094445;28;20036;-80
2024/01/08 07:13:51;;;;;;;5.43;3.65;;;-3275.50;86.50;;;;;;5115383;28;20406;-79
2024/01/08 07:16:20;;;;;;;6.15;4.05;;;-3275.60;86.80;;;;;;5115611;28;20038;-78
2024/01/08 07:18:46;;;;;;;5.90;4.03;;;-3275.60;86.90;;;;;;5114842;28;20038;-80
2024/01/08 07:21:16;;;;;;;8.40;4.15;;;-3275.60;87.10;;;;;;5091957;28;20036;-79
2024/01/08 07:23:44;;;;;;;7.20;4.35;;;-3275.60;87.10;;;;;;5089291;28;20027;-80
2024/01/08 07:26:10;;;;;;;7.45;4.40;;;-3275.60;87.00;;;;;;5115106;28;20031;-79
2024/01/08 07:28:36;;;;;;;8.07;4.32;;;-3275.60;87.00;;;;;;5115417;28;20030;-79
2024/01/08 07:31:03;;;;;;;6.63;4.30;;;-3275.60;87.10;;;;;;5114490;27;20483;-80
2024/01/08 07:33:29;;;;;;;7.90;4.63;;;-3275.60;87.10;;;;;;5134774;27;20035;-80
2024/01/08 07:35:55;;;;;;;12.30;4.57;;;-3275.50;87.20;;;;;;5118630;27;20497;-78
2024/01/08 07:38:21;;;;;;;9.25;4.50;;;-3275.60;87.50;;;;;;5136025;27;20062;-80
2024/01/08 07:40:48;;;;;;;6.57;4.05;;;-3275.50;87.40;;;;;;5118575;27;20103;-79
2024/01/08 07:43:14;;;;;;;6.68;4.45;;;-3275.50;87.50;;;;;;5135806;27;20039;-79
2024/01/08 07:45:39;;;;;;;9.60;4.50;;;-3275.60;87.50;;;;;;5101705;27;20037;-80
2024/01/08 07:48:05;;;;;;;10.23;4.38;;;-3275.50;87.50;;;;;;5118348;27;20126;-79
2024/01/08 07:50:31;;;;;;;7.72;4.15;;;-3275.50;87.50;;;;;;5118269;27;20043;-79
2024/01/08 07:52:57;;;;;;;7.57;3.60;;;-3275.50;87.60;;;;;;5135317;27;20042;-79
2024/01/08 07:55:23;;;;;;;7.07;3.80;;;-3275.60;87.80;;;;;;5118429;27;20126;-79
2024/01/08 07:57:49;;;;;;;9.52;3.83;;;-3275.60;87.90;;;;;;5101255;27;20043;-79
2024/01/08 08:00:15;;;;;;;6.53;3.13;;;-3275.60;87.80;;;;;;5118406;27;20039;-78
2024/01/08 08:02:41;;;;;;;9.63;3.75;;;-3275.60;87.80;;;;;;5084852;27;20383;-79
2024/01/08 08:05:07;;;;;;;7.32;3.63;;;-3275.60;87.90;;;;;;5135291;27;20035;-80
2024/01/08 08:07:33;;;;;;;7.85;4.47;;;-3275.70;88.00;;;;;;5079107;27;20036;-78
2024/01/08 08:09:59;;;;;;;7.20;3.13;;;-3275.80;88.20;;;;;;5134467;27;20039;-78
2024/01/08 08:12:24;;;;;;;7.88;4.28;;;-3275.80;88.20;;;;;;5135264;27;20091;-79
2024/01/08 08:14:50;;;;;;;6.90;3.38;;;-3275.90;88.40;;;;;;5085664;27;20073;-79
2024/01/08 08:17:16;;;;;;;8.30;4.15;;;-3275.90;88.40;;;;;;5109114;27;20422;-80
2024/01/08 08:19:43;;;;;;;5.97;3.10;;;-3276.00;88.30;;;;;;5111895;27;20039;-80
2024/01/08 08:22:11;;;;;;;7.70;3.63;;;-3276.00;88.40;;;;;;5113519;27;20122;-82
2024/01/08 08:24:40;;;;;;;8.07;3.50;;;-3276.10;88.40;;;;;;5116760;27;20364;-82
2024/01/08 08:27:10;;;;;;;7.47;3.47;;;-3276.20;88.40;;;;;;5118204;27;20078;-80
2024/01/08 08:29:39;;;;;;;6.55;3.78;;;-3276.20;88.40;;;;;;5104607;27;20039;-78
2024/01/08 08:32:05;;;;;;;6.10;3.80;;;-3276.10;88.60;;;;;;5115910;27;20047;-79
2024/01/08 08:34:32;;;;;;;7.68;3.70;;;-3276.20;88.70;;;;;;5118454;27;20513;-79
2024/01/08 08:36:57;;;;;;;9.02;3.80;;;-3276.20;88.70;;;;;;5131107;27;20121;-79
2024/01/08 08:39:23;;;;;;;8.23;4.10;;;-3276.30;88.70;;;;;;5082223;27;20462;-79
2024/01/08 08:41:49;;;;;;;9.20;3.70;;;-3276.30;88.80;;;;;;5094360;28;20043;-79
2024/01/08 08:44:15;;;;;;;7.03;4.00;;;-3276.30;88.70;;;;;;5113316;28;20122;-78
2024/01/08 08:46:41;;;;;;;7.10;3.40;;;-3276.30;88.60;;;;;;5097124;28;20130;-78
2024/01/08 08:49:06;;;;;;;7.40;4.20;;;-3276.30;88.80;;;;;;5096989;28;20126;-78
2024/01/08 08:51:36;;;;;;;9.68;3.88;;;-3276.40;88.90;;;;;;5097159;28;20039;-80
2024/01/08 08:54:04;;;;;;;10.30;3.97;;;-3276.40;88.90;;;;;;5096771;28;20047;-78
2024/01/08 08:56:36;;;;;;;7.38;3.50;;;-3276.40;88.80;;;;;;5113691;28;20107;-79
2024/01/08 08:59:02;;;;;;;7.15;3.35;;;-3276.50;88.80;;;;;;5113448;28;20035;-79
2024/01/08 09:01:28;;;;;;;11.48;3.70;;;-3276.50;88.90;;;;;;5097206;28;20039;-79
2024/01/08 09:03:54;;;;;;;6.32;3.90;;;-3276.50;89.00;;;;;;5096703;28;20046;-78
2024/01/08 09:06:20;;;;;;;6.38;3.95;;;-3276.50;88.90;;;;;;5079893;28;20036;-79
2024/01/08 09:08:47;;;;;;;5.18;3.00;;;-3276.50;88.80;;;;;;5096713;28;20601;-79
2024/01/08 09:11:13;;;;;;;6.78;2.97;;;-3276.60;88.80;;;;;;5079870;28;20042;-78
2024/01/08 09:13:39;;;;;;;5.53;3.25;;;-3276.60;88.80;;;;;;5113436;28;20032;-78
2024/01/08 09:16:04;;;;;;;8.13;3.28;;;-3276.60;88.80;;;;;;5096533;28;20414;-78
2024/01/08 09:18:30;;;;;;;9.70;4.13;;;-3276.60;88.70;;;;;;5096361;28;20043;-77
2024/01/08 09:20:56;;;;;;;6.65;2.90;;;-3276.60;88.70;;;;;;5113363;28;20484;-78
2024/01/08 09:23:22;;;;;;;7.03;3.10;;;-3276.70;88.70;;;;;;5079442;28;20039;-77
2024/01/08 09:25:47;;;;;;;8.77;2.80;;;-3276.70;88.80;;;;;;5079334;28;20089;-78
2024/01/08 09:28:13;;;;;;;4.50;2.50;;;-3276.70;88.60;;;;;;5096549;28;20092;-77
2024/01/08 09:30:39;;;;;;;7.40;2.85;;;-3276.70;88.60;;;;;;5062706;28;20507;-77
2024/01/08 09:33:05;;;;;;;6.05;3.30;;;0.00;88.50;;;;;;5096202;28;20047;-76
2024/01/08 09:35:31;;;;;;;8.43;2.83;;;0.00;88.60;;;;;;5112902;28;20126;-77
2024/01/08 09:37:56;;;;;;;5.82;2.75;;;0.00;88.40;;;;;;5095787;28;20158;-78
2024/01/08 09:40:22;;;;;;;6.22;3.10;;;0.00;88.40;;;;;;5113023;28;20043;-78
2024/01/08 09:42:51;;;;;;;5.88;2.85;;;0.00;88.30;;;;;;5112960;28;20080;-78
2024/01/08 09:45:23;;;;;;;6.40;3.22;;;0.10;88.20;;;;;;5079446;28;20035;-78
2024/01/08 09:47:49;;;;;;;6.22;2.83;;;0.10;88.30;;;;;;5115787;27;20046;-77
2024/01/08 09:50:16;;;;;;;6.40;2.97;;;0.10;87.90;;;;;;5133363;27;20070;-78
2024/01/08 09:52:43;;;;;;;11.82;3.13;;;0.10;88.00;;;;;;5099530;27;20047;-77
2024/01/08 09:55:10;;;;;;;6.10;2.80;;;0.10;87.40;;;;;;5098888;27;20039;-78
2024/01/08 09:57:36;;;;;;;5.22;2.50;;;0.10;87.20;;;;;;5116086;27;20040;-78
2024/01/08 10:00:03;;;;;;;5.07;2.70;;;0.20;87.60;;;;;;5133180;27;20035;-78
2024/01/08 10:02:29;;;;;;;7.57;3.58;;;0.20;87.80;;;;;;5133721;27;20039;-78
2024/01/08 10:04:55;;;;;;;6.22;3.28;;;0.30;87.50;;;;;;5133283;27;20045;-80
2024/01/08 10:07:22;;;;;;;4.55;2.17;;;0.30;87.80;;;;;;5133109;27;20039;-80
2024/01/08 10:09:47;;;;;;;4.78;2.50;;;0.40;87.90;;;;;;5099004;27;20498;-79
2024/01/08 10:12:14;;;;;;;5.80;2.50;;;0.40;87.50;;;;;;5082070;27;20047;-78
2024/01/08 10:14:40;;;;;;;5.13;2.33;;;0.30;86.90;;;;;;5115748;27;20039;-80
2024/01/08 10:17:06;;;;;;;3.90;2.13;;;0.30;86.40;;;;;;5115659;27;20130;-79
2024/01/08 10:19:31;;;;;;;5.40;2.35;;;0.30;86.40;;;;;;5115695;27;20069;-80
2024/01/08 10:22:11;;;;;;;8.43;2.38;;;0.40;87.00;;;;;;5098047;28;20035;-79
2024/01/08 10:24:38;;;;;;;8.10;2.58;;;0.30;85.70;;;;;;5132710;27;20060;-80
2024/01/08 10:27:09;;;;;;;3.97;2.20;;;0.40;86.10;;;;;;5115768;28;20053;-80
2024/01/08 10:29:36;;;;;;;4.15;2.35;;;0.30;86.00;;;;;;5115909;27;20035;-80
2024/01/08 10:32:02;;;;;;;7.03;2.78;;;0.40;86.20;;;;;;5115594;27;20031;-80
2024/01/08 10:34:29;;;;;;;10.50;2.92;;;0.30;85.40;;;;;;5115551;28;20039;-80
2024/01/08 10:36:57;;;;;;;7.00;2.92;;;0.30;85.40;;;;;;5115760;28;20039;-81
2024/01/08 10:39:23;;;;;;;5.55;2.60;;;0.40;84.90;;;;;;5115405;28;20522;-80
2024/01/08 10:41:49;;;;;;;3.58;2.50;;;0.30;85.20;;;;;;5098675;28;20039;-80
2024/01/08 10:44:15;;;;;;;7.25;2.70;;;0.40;85.90;;;;;;5115783;28;20066;-80
2024/01/08 10:46:56;;;;;;;4.75;2.70;;;0.40;85.60;;;;;;5115752;28;20487;-81
2024/01/08 10:49:38;;;;;;;5.68;2.78;;;0.40;85.90;;;;;;5115755;28;20051;-80
2024/01/08 10:52:23;;;;;;;6.57;2.75;;;0.30;85.10;;;;;;5115988;28;20043;-81
2024/01/08 10:55:00;;;;;;;8.10;3.33;;;0.30;84.70;;;;;;5115335;28;20043;-80
2024/01/08 10:57:36;;;;;;;6.50;3.22;;;0.30;85.10;;;;;;5115467;28;20091;-80
2024/01/08 11:00:08;;;;;;;4.38;2.80;;;0.30;85.10;;;;;;5115605;28;20042;-81
2024/01/08 11:02:37;;;;;;;4.80;3.17;;;0.40;84.80;;;;;;5115568;28;20093;-80
2024/01/08 11:05:05;;;;;;;5.78;3.25;;;0.40;84.90;;;;;;5132343;28;20065;-80
2024/01/08 11:07:36;;;;;;;6.13;3.17;;;0.50;85.60;;;;;;5135921;27;20050;-81
2024/01/08 11:10:04;;;;;;;7.65;3.17;;;0.50;85.40;;;;;;5136442;27;20068;-80
2024/01/08 11:12:30;;;;;;;4.18;2.67;;;0.40;84.80;;;;;;5136368;27;20055;-81
2024/01/08 11:15:05;;;;;;;5.20;2.85;;;0.40;84.10;;;;;;5119128;27;20039;-80
2024/01/08 11:17:32;;;;;;;8.30;2.80;;;0.50;84.90;;;;;;5102131;27;20127;-80
2024/01/08 11:19:59;;;;;;;7.25;3.10;;;0.50;85.40;;;;;;5119536;27;20046;-80
2024/01/08 11:22:25;;;;;;;8.30;3.28;;;0.50;85.00;;;;;;5102271;27;20031;-81
2024/01/08 11:24:57;;;;;;;4.95;2.72;;;0.50;84.70;;;;;;5119011;27;20038;-80
2024/01/08 11:27:24;;;;;;;6.35;3.42;;;0.50;84.90;;;;;;5119278;27;20047;-80
2024/01/08 11:30:01;;;;;;;5.95;3.03;;;0.50;85.00;;;;;;5119227;27;20075;-80
2024/01/08 11:32:59;;;;;;;5.30;3.15;;;0.60;85.30;;;;;;5136101;27;20042;-80
2024/01/08 11:35:28;;;;;;;7.15;3.15;;;0.60;84.90;;;;;;5118800;27;20039;-80
2024/01/08 11:38:24;;;;;;;4.63;3.00;;;0.50;84.40;;;;;;5101578;27;20065;-80
2024/01/08 11:40:50;;;;;;;5.20;3.03;;;0.60;84.70;;;;;;5118776;27;20147;-81
2024/01/08 11:43:18;;;;;;;3.70;2.35;;;0.60;85.00;;;;;;5101768;27;20122;-80
2024/01/08 11:45:44;;;;;;;7.85;2.95;;;0.60;85.10;;;;;;5118766;27;20038;-81
2024/01/08 11:48:10;;;;;;;6.35;3.08;;;0.40;84.00;;;;;;5136026;27;20428;-80
2024/01/08 11:50:36;;;;;;;5.82;2.72;;;0.40;83.30;;;;;;5101807;27;20180;-80
2024/01/08 11:53:04;;;;;;;5.18;2.90;;;0.40;83.40;;;;;;5135932;27;20047;-80
2024/01/08 11:55:31;;;;;;;4.82;2.42;;;0.40;83.70;;;;;;5118753;27;20372;-80
2024/01/08 11:57:57;;;;;;;6.65;3.25;;;0.40;82.30;;;;;;5118677;27;20140;-81
2024/01/08 12:00:28;;;;;;;6.50;3.20;;;0.40;82.30;;;;;;5101737;27;20067;-81
2024/01/08 12:03:09;;;;;;;5.13;2.75;;;0.40;82.30;;;;;;5135624;27;20045;-80
2024/01/08 12:05:37;;;;;;;6.00;3.40;;;0.60;83.50;;;;;;5118687;27;20035;-81
2024/01/08 12:08:03;;;;;;;4.55;3.53;;;0.70;81.70;;;;;;5135656;27;20391;-81
2024/01/08 12:10:30;;;;;;;4.75;2.85;;;0.90;81.20;;;;;;5118835;27;20435;-81
2024/01/08 12:12:56;;;;;;;5.20;2.65;;;1.10;80.10;;;;;;5118295;27;20065;-81
2024/01/08 12:15:22;;;;;;;4.70;3.22;;;1.20;81.50;;;;;;5101249;27;20554;-81
2024/01/08 12:17:48;;;;;;;5.22;2.88;;;1.20;78.90;;;;;;5100441;27;20126;-80
2024/01/08 12:20:14;;;;;;;5.03;3.10;;;1.20;78.20;;;;;;5101359;27;20082;-81
2024/01/08 12:22:40;;;;;;;4.28;2.95;;;1.30;80.00;;;;;;5101283;27;20041;-81
2024/01/08 12:25:10;;;;;;;5.60;3.00;;;1.10;78.50;;;;;;5100906;27;20073;-80